CheckWX is a tool to help pilots better visualize weather data.  It is not intended as a substitute for an official pre-flight weather briefing.

20:49:24 UTC

KWLD METAR
Strother Field Airport
Winfield/Arkansas City, Kansas, USA
Current

55 mins ago

KWLD 131954Z AUTO 25009KT 10SM CLR 14/03 A2981 RMK AO2 SLP095 T01440033
Observed
Dec-13 @ 19:54 UTC
Wind
  • 250° at 9 KTS
Visibility
10 SM
Flight Rules
VFR
Cloud Levels
  • Clear skies
Temperature
14°C / 57°F
Dewpoint
C / 37°F
Humidity
48%
Altimeter
29.81" Hg
Pressure
1009.52 hPa
Previous

2 hours ago

KWLD 131854Z AUTO 21008KT 10SM CLR 13/04 A2984 RMK AO2 SLP104 T01330039
Observed
Dec-13 @ 18:54 UTC
Wind
  • 210° at 8 KTS
Visibility
10 SM
Flight Rules
VFR
Cloud Levels
  • Clear skies
Temperature
13°C / 55°F
Dewpoint
C / 39°F
Humidity
55%
Altimeter
29.84" Hg
Pressure
1010.52 hPa
Previous

3 hours ago

KWLD 131754Z AUTO 22006KT 10SM CLR 12/04 A2988 RMK AO2 SLP118 T01170039 10117 20017 58009
Observed
Dec-13 @ 17:54 UTC
Wind
  • 220° at 6 KTS
Visibility
10 SM
Flight Rules
VFR
Cloud Levels
  • Clear skies
Temperature
12°C / 54°F
Dewpoint
C / 39°F
Humidity
58%
Altimeter
29.88" Hg
Pressure
1011.82 hPa